Kalamazoo Battle Creek International Airport
KAZO : now visible

Airfield :











YOU CAN JOIN US ON...

 
LOGIN :

Register | Disclaimer

   EN    FR    IT 

 









Legend :    VFR   Marginal VFR   IFR   Intensive IFR   Very Intensive IFR
Visi :
Ceiling :
>= 8 km
>= 3000ft
5 to 8 km
1000 to 3000 ft
1500m to 5 km
500 to 1000 ft
800 to 1500m
200 to 500 ft
< 800m
< 200 ft
Symbols :   Thunderstorms  Fog  Heavy snow  Heavy precipitations  Wind > 20 kt






- Airport Elevation : 874 ft
- IATA code : AZO


KAZO - Kalamazoo Battle Creek International

CURRENT METAR :
  • 141553Z 22006KT 2 1/2SM BR OVC007 M02/M04 A3019 RMK AO2 SLP235 T10221039

EXPIRED METARs :
  • 141440Z 21005KT 4SM BR OVC010 M03/M05 A3017 RMK AO2 T10281050
  • 141353Z 21006KT 4SM HZ OVC017 M03/M06 A3016 RMK AO2 SNB11E42 SLP225 P0000 T10281056

TAF KAZO
Valid from the 14 at 16:00 until the 15 at 12:00 UTC


141540Z 1416/1512 22006KT 2SM BR OVC007
FM150400 26006KT 4SM BR OVC015



MET'MAP, your aeronautical weather chart ! - Copyright ORBIFLY December 2007 - Disclaimer

ORBIFLY MET'MAP TEAM :

Programming & Development : Alexandra Zaïnal
Concept & Development : Baudouin d'Aumeries
Co-Development & Prog : Marc-Olivier Méhu
Technical & hardware support : Manuel Goepfert

Contact : metmap@orbifly.com




SOURCES & CREDITS :

   NOAA       Earth
Advisory